CheckWX is a tool to help pilots better visualize weather data.  It is not intended as a substitute for an official pre-flight weather briefing.

02:50:46 UTC

KFTY METAR
Fulton County-Brown Field Airport
Atlanta, Georgia, USA
Current

58 mins ago

KFTY 240153Z 00000KT 10SM CLR 12/M01 A3024 RMK AO2 SLP240 T01221011
Observed
Mar-24 @ 01:53 UTC
Visibility
10 SM
Flight Rules
VFR
Cloud Levels
  • Clear skies
Temperature
12°C / 54°F
Dewpoint
-1°C / 30°F
Humidity
41%
Altimeter
30.24" Hg
Pressure
1024 hPa
Previous

2 hours ago

KFTY 240053Z 00000KT 10SM CLR 16/M03 A3023 RMK AO2 SLP235 T01611028
Observed
Mar-24 @ 00:53 UTC
Visibility
10 SM
Flight Rules
VFR
Cloud Levels
  • Clear skies
Temperature
16°C / 61°F
Dewpoint
-3°C / 27°F
Humidity
27%
Altimeter
30.23" Hg
Pressure
1023.5 hPa
Previous

3 hours ago

KFTY 232353Z 00000KT 10SM CLR 18/M04 A3021 RMK AO2 SLP228 T01781044 10217 20178 53004
Observed
Mar-23 @ 23:53 UTC
Visibility
10 SM
Flight Rules
VFR
Cloud Levels
  • Clear skies
Temperature
18°C / 64°F
Dewpoint
-4°C / 25°F
Humidity
22%
Altimeter
30.21" Hg
Pressure
1022.8 hPa